sensor_id;sensor_type;location;lat;lon;timestamp;pressure;altitude;pressure_sealevel;temperature;humidity
65013;BME280;51715;39.432;-77.518;2023-08-17T00:01:32;99379.88;;;30.94;30.40
65013;BME280;51715;39.432;-77.518;2023-08-17T00:04:00;99381.40;;;30.56;30.50
65013;BME280;51715;39.432;-77.518;2023-08-17T00:06:28;99385.04;;;30.46;30.62
65013;BME280;51715;39.432;-77.518;2023-08-17T00:08:57;99387.16;;;30.34;30.88
65013;BME280;51715;39.432;-77.518;2023-08-17T00:11:26;99389.64;;;30.22;30.85
65013;BME280;51715;39.432;-77.518;2023-08-17T00:13:55;99391.43;;;30.32;31.23
65013;BME280;51715;39.432;-77.518;2023-08-17T00:16:23;99393.67;;;30.18;31.37
65013;BME280;51715;39.432;-77.518;2023-08-17T00:18:52;99398.91;;;29.87;31.50
65013;BME280;51715;39.432;-77.518;2023-08-17T00:21:22;99405.37;;;30.17;31.86
65013;BME280;51715;39.432;-77.518;2023-08-17T00:23:50;99410.92;;;30.25;32.05
65013;BME280;51715;39.432;-77.518;2023-08-17T00:26:19;99413.42;;;29.59;32.43
65013;BME280;51715;39.432;-77.518;2023-08-17T00:28:47;99413.75;;;29.89;32.66
65013;BME280;51715;39.432;-77.518;2023-08-17T00:31:16;99412.49;;;29.80;32.93
65013;BME280;51715;39.432;-77.518;2023-08-17T00:33:44;99416.19;;;29.44;32.93
65013;BME280;51715;39.432;-77.518;2023-08-17T00:36:14;99417.95;;;29.30;32.97
65013;BME280;51715;39.432;-77.518;2023-08-17T00:38:42;99420.74;;;29.47;33.23
65013;BME280;51715;39.432;-77.518;2023-08-17T00:41:11;99420.42;;;29.10;33.53
65013;BME280;51715;39.432;-77.518;2023-08-17T00:43:40;99423.82;;;29.27;33.77
65013;BME280;51715;39.432;-77.518;2023-08-17T00:46:09;99429.20;;;29.13;34.12
65013;BME280;51715;39.432;-77.518;2023-08-17T00:48:39;99432.88;;;28.99;34.29
65013;BME280;51715;39.432;-77.518;2023-08-17T00:51:08;99432.03;;;28.86;34.48
65013;BME280;51715;39.432;-77.518;2023-08-17T00:53:36;99433.06;;;28.97;34.79
65013;BME280;51715;39.432;-77.518;2023-08-17T00:56:04;99437.09;;;28.63;34.99
65013;BME280;51715;39.432;-77.518;2023-08-17T00:58:34;99440.25;;;29.02;35.10
65013;BME280;51715;39.432;-77.518;2023-08-17T01:01:03;99444.74;;;28.41;35.25
65013;BME280;51715;39.432;-77.518;2023-08-17T01:03:31;99448.57;;;28.52;35.51
65013;BME280;51715;39.432;-77.518;2023-08-17T01:06:00;99445.91;;;28.14;35.72
65013;BME280;51715;39.432;-77.518;2023-08-17T01:08:29;99446.49;;;28.27;35.84
65013;BME280;51715;39.432;-77.518;2023-08-17T01:11:05;99445.52;;;28.13;36.10
65013;BME280;51715;39.432;-77.518;2023-08-17T01:13:42;99450.32;;;28.28;36.33
65013;BME280;51715;39.432;-77.518;2023-08-17T01:16:14;99453.48;;;28.00;36.33
65013;BME280;51715;39.432;-77.518;2023-08-17T01:18:46;99457.90;;;28.24;36.23
65013;BME280;51715;39.432;-77.518;2023-08-17T01:21:17;99462.18;;;28.22;36.24
65013;BME280;51715;39.432;-77.518;2023-08-17T01:23:46;99465.62;;;27.94;36.28
65013;BME280;51715;39.432;-77.518;2023-08-17T01:26:14;99466.28;;;28.17;36.29
65013;BME280;51715;39.432;-77.518;2023-08-17T01:28:42;99469.63;;;28.08;36.51
65013;BME280;51715;39.432;-77.518;2023-08-17T01:31:14;99467.65;;;27.92;36.72
65013;BME280;51715;39.432;-77.518;2023-08-17T01:33:50;99469.03;;;27.73;37.15
65013;BME280;51715;39.432;-77.518;2023-08-17T01:36:25;99475.20;;;27.53;37.21
65013;BME280;51715;39.432;-77.518;2023-08-17T01:38:54;99475.88;;;27.41;37.34
65013;BME280;51715;39.432;-77.518;2023-08-17T01:41:25;99476.57;;;27.71;37.57
65013;BME280;51715;39.432;-77.518;2023-08-17T01:43:55;99477.61;;;27.35;37.85
65013;BME280;51715;39.432;-77.518;2023-08-17T01:46:29;99479.65;;;26.95;37.92
65013;BME280;51715;39.432;-77.518;2023-08-17T01:48:58;99477.64;;;27.11;37.77
65013;BME280;51715;39.432;-77.518;2023-08-17T01:51:26;99476.98;;;26.92;37.62
65013;BME280;51715;39.432;-77.518;2023-08-17T01:53:55;99475.94;;;26.92;37.77
65013;BME280;51715;39.432;-77.518;2023-08-17T01:56:23;99473.78;;;26.93;37.74
65013;BME280;51715;39.432;-77.518;2023-08-17T01:58:52;99473.62;;;27.36;37.72
65013;BME280;51715;39.432;-77.518;2023-08-17T02:01:20;99473.11;;;26.84;38.09
65013;BME280;51715;39.432;-77.518;2023-08-17T02:03:47;99472.59;;;27.00;37.98
65013;BME280;51715;39.432;-77.518;2023-08-17T02:06:16;99472.76;;;26.99;37.90
65013;BME280;51715;39.432;-77.518;2023-08-17T02:08:45;99470.65;;;27.16;37.96
65013;BME280;51715;39.432;-77.518;2023-08-17T02:11:13;99469.61;;;27.08;38.05
65013;BME280;51715;39.432;-77.518;2023-08-17T02:13:42;99471.01;;;27.03;38.25
65013;BME280;51715;39.432;-77.518;2023-08-17T02:16:09;99468.05;;;26.85;38.35
65013;BME280;51715;39.432;-77.518;2023-08-17T02:18:37;99470.56;;;26.62;38.69
65013;BME280;51715;39.432;-77.518;2023-08-17T02:21:04;99469.24;;;26.50;39.06
65013;BME280;51715;39.432;-77.518;2023-08-17T02:23:32;99468.98;;;26.53;39.10
65013;BME280;51715;39.432;-77.518;2023-08-17T02:26:01;99469.55;;;26.49;39.08
65013;BME280;51715;39.432;-77.518;2023-08-17T02:28:29;99468.56;;;26.44;39.13
65013;BME280;51715;39.432;-77.518;2023-08-17T02:30:58;99464.70;;;26.39;39.17
65013;BME280;51715;39.432;-77.518;2023-08-17T02:33:26;99462.01;;;26.36;39.20
65013;BME280;51715;39.432;-77.518;2023-08-17T02:35:54;99457.08;;;26.26;39.34
65013;BME280;51715;39.432;-77.518;2023-08-17T02:38:22;99456.55;;;26.23;39.33
65013;BME280;51715;39.432;-77.518;2023-08-17T02:40:50;99454.60;;;26.02;39.30
65013;BME280;51715;39.432;-77.518;2023-08-17T02:43:18;99450.75;;;26.49;39.44
65013;BME280;51715;39.432;-77.518;2023-08-17T02:45:47;99450.74;;;26.50;39.51
65013;BME280;51715;39.432;-77.518;2023-08-17T02:48:14;99450.92;;;26.23;39.36
65013;BME280;51715;39.432;-77.518;2023-08-17T02:50:43;99453.60;;;26.19;39.48
65013;BME280;51715;39.432;-77.518;2023-08-17T02:53:10;99451.83;;;26.14;39.37
65013;BME280;51715;39.432;-77.518;2023-08-17T02:55:39;99446.99;;;26.12;39.44
65013;BME280;51715;39.432;-77.518;2023-08-17T02:58:06;99443.51;;;26.34;39.09
65013;BME280;51715;39.432;-77.518;2023-08-17T03:00:34;99439.24;;;25.95;39.16
65013;BME280;51715;39.432;-77.518;2023-08-17T03:03:02;99439.03;;;26.03;39.40
65013;BME280;51715;39.432;-77.518;2023-08-17T03:05:31;99436.56;;;26.04;39.76
65013;BME280;51715;39.432;-77.518;2023-08-17T03:07:58;99438.91;;;25.45;39.97
65013;BME280;51715;39.432;-77.518;2023-08-17T03:10:27;99441.50;;;25.39;40.12
65013;BME280;51715;39.432;-77.518;2023-08-17T03:12:54;99442.74;;;25.93;40.12
65013;BME280;51715;39.432;-77.518;2023-08-17T03:15:22;99442.50;;;25.78;39.96
65013;BME280;51715;39.432;-77.518;2023-08-17T03:17:50;99438.10;;;25.95;40.12
65013;BME280;51715;39.432;-77.518;2023-08-17T03:20:18;99437.13;;;25.96;40.16
65013;BME280;51715;39.432;-77.518;2023-08-17T03:22:47;99437.10;;;25.98;40.39
65013;BME280;51715;39.432;-77.518;2023-08-17T03:25:15;99438.78;;;26.00;40.13
65013;BME280;51715;39.432;-77.518;2023-08-17T03:27:43;99433.56;;;25.76;40.25
65013;BME280;51715;39.432;-77.518;2023-08-17T03:30:12;99429.26;;;25.79;39.85
65013;BME280;51715;39.432;-77.518;2023-08-17T03:32:40;99427.34;;;25.96;39.63
65013;BME280;51715;39.432;-77.518;2023-08-17T03:35:08;99429.81;;;25.94;39.52
65013;BME280;51715;39.432;-77.518;2023-08-17T03:37:37;99429.49;;;25.97;39.65
65013;BME280;51715;39.432;-77.518;2023-08-17T03:40:06;99432.44;;;25.97;39.98
65013;BME280;51715;39.432;-77.518;2023-08-17T03:42:34;99436.28;;;26.01;39.79
65013;BME280;51715;39.432;-77.518;2023-08-17T03:45:03;99433.77;;;25.82;39.84
65013;BME280;51715;39.432;-77.518;2023-08-17T03:47:31;99433.99;;;26.05;39.98
65013;BME280;51715;39.432;-77.518;2023-08-17T03:49:59;99436.49;;;26.05;40.02
65013;BME280;51715;39.432;-77.518;2023-08-17T03:52:28;99436.49;;;26.12;39.88
65013;BME280;51715;39.432;-77.518;2023-08-17T03:54:56;99435.99;;;25.95;40.03
65013;BME280;51715;39.432;-77.518;2023-08-17T03:57:25;99437.73;;;25.76;39.67
65013;BME280;51715;39.432;-77.518;2023-08-17T03:59:52;99438.93;;;25.83;40.17
65013;BME280;51715;39.432;-77.518;2023-08-17T04:04:06;99439.16;;;25.97;38.46
65013;BME280;51715;39.432;-77.518;2023-08-17T04:06:34;99438.78;;;26.26;38.07
65013;BME280;51715;39.432;-77.518;2023-08-17T04:09:03;99438.56;;;26.36;38.49
65013;BME280;51715;39.432;-77.518;2023-08-17T04:11:33;99437.38;;;26.44;38.65
65013;BME280;51715;39.432;-77.518;2023-08-17T04:14:03;99435.64;;;26.70;38.66
65013;BME280;51715;39.432;-77.518;2023-08-17T04:16:32;99436.76;;;26.37;39.08
65013;BME280;51715;39.432;-77.518;2023-08-17T04:19:00;99435.02;;;26.47;39.00
65013;BME280;51715;39.432;-77.518;2023-08-17T04:21:27;99432.67;;;26.13;39.20
65013;BME280;51715;39.432;-77.518;2023-08-17T04:23:56;99435.10;;;26.30;39.63
65013;BME280;51715;39.432;-77.518;2023-08-17T04:26:24;99437.94;;;26.03;39.72
65013;BME280;51715;39.432;-77.518;2023-08-17T04:28:53;99440.48;;;26.07;39.73
65013;BME280;51715;39.432;-77.518;2023-08-17T04:31:21;99439.38;;;26.37;39.49
65013;BME280;51715;39.432;-77.518;2023-08-17T04:33:49;99440.82;;;26.12;39.70
65013;BME280;51715;39.432;-77.518;2023-08-17T04:36:17;99441.48;;;26.39;39.49
65013;BME280;51715;39.432;-77.518;2023-08-17T04:38:45;99438.98;;;26.10;39.64
65013;BME280;51715;39.432;-77.518;2023-08-17T04:41:13;99436.32;;;26.14;39.28
65013;BME280;51715;39.432;-77.518;2023-08-17T04:43:41;99433.82;;;26.16;39.25
65013;BME280;51715;39.432;-77.518;2023-08-17T04:46:09;99432.65;;;26.18;39.37
65013;BME280;51715;39.432;-77.518;2023-08-17T04:48:37;99434.27;;;26.21;39.33
65013;BME280;51715;39.432;-77.518;2023-08-17T04:51:05;99434.17;;;26.23;39.34
65013;BME280;51715;39.432;-77.518;2023-08-17T04:53:33;99433.09;;;26.51;39.48
65013;BME280;51715;39.432;-77.518;2023-08-17T04:56:00;99432.37;;;26.25;39.57
65013;BME280;51715;39.432;-77.518;2023-08-17T04:58:28;99430.72;;;26.31;39.42
65013;BME280;51715;39.432;-77.518;2023-08-17T05:00:57;99428.80;;;26.34;39.70
65013;BME280;51715;39.432;-77.518;2023-08-17T05:03:26;99429.77;;;26.37;39.30
65013;BME280;51715;39.432;-77.518;2023-08-17T05:05:53;99424.83;;;26.34;39.22
65013;BME280;51715;39.432;-77.518;2023-08-17T05:08:21;99421.61;;;26.31;39.10
65013;BME280;51715;39.432;-77.518;2023-08-17T05:10:50;99416.05;;;26.31;38.98
65013;BME280;51715;39.432;-77.518;2023-08-17T05:13:19;99416.40;;;26.35;39.14
65013;BME280;51715;39.432;-77.518;2023-08-17T05:15:47;99415.58;;;26.40;39.54
65013;BME280;51715;39.432;-77.518;2023-08-17T05:18:15;99419.83;;;26.38;39.47
65013;BME280;51715;39.432;-77.518;2023-08-17T05:20:44;99422.64;;;26.23;39.54
65013;BME280;51715;39.432;-77.518;2023-08-17T05:23:12;99421.67;;;26.23;40.11
65013;BME280;51715;39.432;-77.518;2023-08-17T05:25:40;99420.38;;;26.01;40.13
65013;BME280;51715;39.432;-77.518;2023-08-17T05:28:08;99416.47;;;26.06;40.19
65013;BME280;51715;39.432;-77.518;2023-08-17T05:30:36;99416.45;;;26.40;40.04
65013;BME280;51715;39.432;-77.518;2023-08-17T05:33:04;99417.18;;;26.14;40.18
65013;BME280;51715;39.432;-77.518;2023-08-17T05:35:33;99418.71;;;26.11;39.88
65013;BME280;51715;39.432;-77.518;2023-08-17T05:38:02;99415.83;;;26.15;39.89
65013;BME280;51715;39.432;-77.518;2023-08-17T05:40:30;99412.58;;;26.48;39.55
65013;BME280;51715;39.432;-77.518;2023-08-17T05:42:58;99409.02;;;26.24;39.95
65013;BME280;51715;39.432;-77.518;2023-08-17T05:45:26;99407.63;;;26.31;39.98
65013;BME280;51715;39.432;-77.518;2023-08-17T05:47:54;99407.16;;;26.34;39.47
65013;BME280;51715;39.432;-77.518;2023-08-17T05:50:23;99404.75;;;26.34;39.73
65013;BME280;51715;39.432;-77.518;2023-08-17T05:52:51;99402.96;;;26.36;39.83
65013;BME280;51715;39.432;-77.518;2023-08-17T05:55:19;99403.67;;;26.12;40.00
65013;BME280;51715;39.432;-77.518;2023-08-17T05:57:47;99405.91;;;26.25;40.19
65013;BME280;51715;39.432;-77.518;2023-08-17T06:00:16;99405.85;;;26.27;40.07
65013;BME280;51715;39.432;-77.518;2023-08-17T06:02:44;99401.55;;;26.24;40.27
65013;BME280;51715;39.432;-77.518;2023-08-17T06:05:13;99399.70;;;26.28;39.81
65013;BME280;51715;39.432;-77.518;2023-08-17T06:07:41;99398.20;;;26.28;40.14
65013;BME280;51715;39.432;-77.518;2023-08-17T06:10:10;99394.50;;;26.35;40.11
65013;BME280;51715;39.432;-77.518;2023-08-17T06:12:38;99392.71;;;26.48;39.68
65013;BME280;51715;39.432;-77.518;2023-08-17T06:15:07;99395.38;;;26.57;39.61
65013;BME280;51715;39.432;-77.518;2023-08-17T06:17:35;99395.32;;;26.57;39.64
65013;BME280;51715;39.432;-77.518;2023-08-17T06:20:04;99392.58;;;26.51;39.68
65013;BME280;51715;39.432;-77.518;2023-08-17T06:22:33;99396.92;;;26.45;40.09
65013;BME280;51715;39.432;-77.518;2023-08-17T06:25:01;99398.14;;;26.43;39.97
65013;BME280;51715;39.432;-77.518;2023-08-17T06:27:29;99399.54;;;26.45;39.94
65013;BME280;51715;39.432;-77.518;2023-08-17T06:29:58;99403.08;;;26.48;39.91
65013;BME280;51715;39.432;-77.518;2023-08-17T06:32:26;99405.93;;;26.51;39.71
65013;BME280;51715;39.432;-77.518;2023-08-17T06:34:54;99405.10;;;26.50;39.78
65013;BME280;51715;39.432;-77.518;2023-08-17T06:37:21;99409.45;;;26.57;40.15
65013;BME280;51715;39.432;-77.518;2023-08-17T06:39:50;99408.08;;;26.60;40.11
65013;BME280;51715;39.432;-77.518;2023-08-17T06:42:17;99412.05;;;26.61;40.11
65013;BME280;51715;39.432;-77.518;2023-08-17T06:44:46;99412.98;;;26.36;40.29
65013;BME280;51715;39.432;-77.518;2023-08-17T06:47:15;99411.42;;;26.57;40.31
65013;BME280;51715;39.432;-77.518;2023-08-17T06:49:43;99412.97;;;26.57;40.20
65013;BME280;51715;39.432;-77.518;2023-08-17T06:52:12;99409.96;;;26.55;40.14
65013;BME280;51715;39.432;-77.518;2023-08-17T06:54:40;99405.83;;;26.50;39.97
65013;BME280;51715;39.432;-77.518;2023-08-17T06:57:08;99405.41;;;26.48;39.87
65013;BME280;51715;39.432;-77.518;2023-08-17T06:59:36;99406.01;;;26.47;40.08
65013;BME280;51715;39.432;-77.518;2023-08-17T07:02:04;99400.90;;;26.47;39.85
65013;BME280;51715;39.432;-77.518;2023-08-17T07:04:33;99400.07;;;26.44;39.93
65013;BME280;51715;39.432;-77.518;2023-08-17T07:07:01;99398.74;;;26.41;40.43
65013;BME280;51715;39.432;-77.518;2023-08-17T07:09:29;99399.61;;;26.34;40.76
65013;BME280;51715;39.432;-77.518;2023-08-17T07:11:57;99399.33;;;26.36;40.47
65013;BME280;51715;39.432;-77.518;2023-08-17T07:14:26;99393.15;;;26.39;40.39
65013;BME280;51715;39.432;-77.518;2023-08-17T07:16:54;99389.76;;;26.35;40.40
65013;BME280;51715;39.432;-77.518;2023-08-17T07:19:22;99387.10;;;26.77;40.40
65013;BME280;51715;39.432;-77.518;2023-08-17T07:21:50;99388.91;;;26.32;40.76
65013;BME280;51715;39.432;-77.518;2023-08-17T07:24:18;99386.39;;;25.87;41.05
65013;BME280;51715;39.432;-77.518;2023-08-17T07:26:46;99383.99;;;26.09;41.21
65013;BME280;51715;39.432;-77.518;2023-08-17T07:29:15;99383.56;;;25.82;41.14
65013;BME280;51715;39.432;-77.518;2023-08-17T07:31:43;99380.85;;;25.80;41.06
65013;BME280;51715;39.432;-77.518;2023-08-17T07:34:10;99383.43;;;26.17;41.21
65013;BME280;51715;39.432;-77.518;2023-08-17T07:36:38;99384.33;;;26.03;41.45
65013;BME280;51715;39.432;-77.518;2023-08-17T07:39:06;99381.75;;;25.96;41.40
65013;BME280;51715;39.432;-77.518;2023-08-17T07:41:35;99380.08;;;25.66;41.42
65013;BME280;51715;39.432;-77.518;2023-08-17T07:44:03;99378.53;;;25.58;41.58
65013;BME280;51715;39.432;-77.518;2023-08-17T07:46:31;99374.85;;;25.78;41.61
65013;BME280;51715;39.432;-77.518;2023-08-17T07:48:59;99376.92;;;25.71;41.55
65013;BME280;51715;39.432;-77.518;2023-08-17T07:51:27;99379.81;;;25.64;41.87
65013;BME280;51715;39.432;-77.518;2023-08-17T07:53:55;99374.65;;;25.58;41.85
65013;BME280;51715;39.432;-77.518;2023-08-17T07:56:23;99374.88;;;25.50;41.98
65013;BME280;51715;39.432;-77.518;2023-08-17T07:58:51;99375.59;;;25.44;42.15
65013;BME280;51715;39.432;-77.518;2023-08-17T08:01:18;99375.48;;;25.37;42.23
65013;BME280;51715;39.432;-77.518;2023-08-17T08:03:47;99374.40;;;25.36;42.15
65013;BME280;51715;39.432;-77.518;2023-08-17T08:06:15;99376.67;;;25.32;42.25
65013;BME280;51715;39.432;-77.518;2023-08-17T08:08:44;99374.08;;;25.25;42.28
65013;BME280;51715;39.432;-77.518;2023-08-17T08:11:12;99369.85;;;25.45;42.46
65013;BME280;51715;39.432;-77.518;2023-08-17T08:13:40;99368.95;;;25.01;42.79
65013;BME280;51715;39.432;-77.518;2023-08-17T08:16:08;99363.83;;;24.94;42.89
65013;BME280;51715;39.432;-77.518;2023-08-17T08:18:36;99362.09;;;25.06;43.19
65013;BME280;51715;39.432;-77.518;2023-08-17T08:21:04;99363.83;;;25.03;43.34
65013;BME280;51715;39.432;-77.518;2023-08-17T08:23:32;99368.62;;;24.72;43.33
65013;BME280;51715;39.432;-77.518;2023-08-17T08:26:00;99368.35;;;24.66;43.47
65013;BME280;51715;39.432;-77.518;2023-08-17T08:28:28;99367.66;;;24.93;43.56
65013;BME280;51715;39.432;-77.518;2023-08-17T08:31:02;99363.63;;;25.01;43.24
65013;BME280;51715;39.432;-77.518;2023-08-17T08:33:30;99359.20;;;25.04;43.16
65013;BME280;51715;39.432;-77.518;2023-08-17T08:35:59;99361.36;;;25.03;43.14
65013;BME280;51715;39.432;-77.518;2023-08-17T08:38:26;99365.28;;;25.00;43.17
65013;BME280;51715;39.432;-77.518;2023-08-17T08:40:54;99364.52;;;25.11;43.40
65013;BME280;51715;39.432;-77.518;2023-08-17T08:43:23;99367.41;;;24.57;43.54
65013;BME280;51715;39.432;-77.518;2023-08-17T08:45:52;99368.61;;;24.52;43.60
65013;BME280;51715;39.432;-77.518;2023-08-17T08:48:22;99371.08;;;25.02;43.51
65013;BME280;51715;39.432;-77.518;2023-08-17T08:50:55;99368.39;;;24.50;43.50
65013;BME280;51715;39.432;-77.518;2023-08-17T08:53:31;99371.09;;;24.50;43.45
65013;BME280;51715;39.432;-77.518;2023-08-17T08:56:00;99376.86;;;25.00;43.36
65013;BME280;51715;39.432;-77.518;2023-08-17T08:58:30;99375.19;;;24.77;43.21
65013;BME280;51715;39.432;-77.518;2023-08-17T09:00:59;99377.83;;;24.45;43.25
65013;BME280;51715;39.432;-77.518;2023-08-17T09:03:27;99378.48;;;24.67;43.24
65013;BME280;51715;39.432;-77.518;2023-08-17T09:05:56;99374.24;;;24.68;43.14
65013;BME280;51715;39.432;-77.518;2023-08-17T09:08:28;99372.80;;;24.86;43.11
65013;BME280;51715;39.432;-77.518;2023-08-17T09:10:57;99376.21;;;24.52;43.31
65013;BME280;51715;39.432;-77.518;2023-08-17T09:13:25;99377.85;;;24.70;43.20
65013;BME280;51715;39.432;-77.518;2023-08-17T09:15:54;99377.10;;;24.68;43.06
65013;BME280;51715;39.432;-77.518;2023-08-17T09:18:21;99378.12;;;24.36;43.31
65013;BME280;51715;39.432;-77.518;2023-08-17T09:20:52;99376.38;;;24.57;43.36
65013;BME280;51715;39.432;-77.518;2023-08-17T09:23:22;99377.15;;;24.48;43.46
65013;BME280;51715;39.432;-77.518;2023-08-17T09:25:50;99377.72;;;24.19;43.48
65013;BME280;51715;39.432;-77.518;2023-08-17T09:28:20;99374.72;;;24.16;43.45
65013;BME280;51715;39.432;-77.518;2023-08-17T09:30:51;99379.50;;;24.36;43.32
65013;BME280;51715;39.432;-77.518;2023-08-17T09:33:20;99384.98;;;24.12;43.35
65013;BME280;51715;39.432;-77.518;2023-08-17T09:35:50;99385.69;;;24.08;43.35
65013;BME280;51715;39.432;-77.518;2023-08-17T09:38:19;99385.63;;;24.09;43.28
65013;BME280;51715;39.432;-77.518;2023-08-17T09:40:47;99389.49;;;24.31;43.19
65013;BME280;51715;39.432;-77.518;2023-08-17T09:43:16;99391.50;;;24.05;43.15
65013;BME280;51715;39.432;-77.518;2023-08-17T09:45:45;99393.00;;;24.17;43.23
65013;BME280;51715;39.432;-77.518;2023-08-17T09:48:20;99393.08;;;24.07;43.35
65013;BME280;51715;39.432;-77.518;2023-08-17T09:50:48;99395.96;;;23.94;43.64
65013;BME280;51715;39.432;-77.518;2023-08-17T09:53:17;99396.00;;;23.87;43.82
65013;BME280;51715;39.432;-77.518;2023-08-17T09:55:46;99395.04;;;24.04;43.86
65013;BME280;51715;39.432;-77.518;2023-08-17T09:58:15;99396.06;;;23.79;43.85
65013;BME280;51715;39.432;-77.518;2023-08-17T10:00:44;99392.81;;;23.79;43.80
65013;BME280;51715;39.432;-77.518;2023-08-17T10:03:15;99392.85;;;23.61;43.78
65013;BME280;51715;39.432;-77.518;2023-08-17T10:05:45;99392.50;;;24.01;43.85
65013;BME280;51715;39.432;-77.518;2023-08-17T10:08:20;99393.07;;;23.80;44.33
65013;BME280;51715;39.432;-77.518;2023-08-17T10:10:48;99392.40;;;23.83;44.29
65013;BME280;51715;39.432;-77.518;2023-08-17T10:13:26;99389.46;;;23.68;44.14
65013;BME280;51715;39.432;-77.518;2023-08-17T10:16:02;99387.10;;;23.75;44.08
65013;BME280;51715;39.432;-77.518;2023-08-17T10:18:35;99389.43;;;24.17;43.73
65013;BME280;51715;39.432;-77.518;2023-08-17T10:21:09;99387.67;;;23.82;43.59
65013;BME280;51715;39.432;-77.518;2023-08-17T10:23:38;99391.68;;;23.85;43.46
65013;BME280;51715;39.432;-77.518;2023-08-17T10:26:07;99390.90;;;24.14;43.24
65013;BME280;51715;39.432;-77.518;2023-08-17T10:28:36;99395.31;;;24.12;43.36
65013;BME280;51715;39.432;-77.518;2023-08-17T10:31:06;99398.50;;;24.09;43.43
65013;BME280;51715;39.432;-77.518;2023-08-17T10:33:35;99402.26;;;24.13;43.31
65013;BME280;51715;39.432;-77.518;2023-08-17T10:36:04;99402.42;;;24.14;43.17
65013;BME280;51715;39.432;-77.518;2023-08-17T10:38:34;99404.18;;;24.19;43.53
65013;BME280;51715;39.432;-77.518;2023-08-17T10:41:15;99407.05;;;24.21;43.59
65013;BME280;51715;39.432;-77.518;2023-08-17T10:44:00;99409.47;;;24.03;43.49
65013;BME280;51715;39.432;-77.518;2023-08-17T10:46:36;99411.03;;;24.09;43.56
65013;BME280;51715;39.432;-77.518;2023-08-17T10:49:06;99411.52;;;24.36;43.61
65013;BME280;51715;39.432;-77.518;2023-08-17T10:51:34;99409.91;;;24.18;43.39
65013;BME280;51715;39.432;-77.518;2023-08-17T10:54:04;99413.19;;;24.23;43.34
65013;BME280;51715;39.432;-77.518;2023-08-17T10:56:33;99412.19;;;24.30;43.22
65013;BME280;51715;39.432;-77.518;2023-08-17T10:59:01;99411.67;;;24.06;43.35
65013;BME280;51715;39.432;-77.518;2023-08-17T11:01:34;99412.68;;;24.34;43.52
65013;BME280;51715;39.432;-77.518;2023-08-17T11:04:16;99412.43;;;24.37;43.25
65013;BME280;51715;39.432;-77.518;2023-08-17T11:06:45;99411.55;;;24.42;43.32
65013;BME280;51715;39.432;-77.518;2023-08-17T11:09:16;99415.06;;;24.23;43.07
65013;BME280;51715;39.432;-77.518;2023-08-17T11:11:53;99419.48;;;24.67;43.12
65013;BME280;51715;39.432;-77.518;2023-08-17T11:14:22;99423.75;;;24.56;43.44
65013;BME280;51715;39.432;-77.518;2023-08-17T11:16:50;99426.26;;;24.36;43.40
65013;BME280;51715;39.432;-77.518;2023-08-17T11:19:19;99425.37;;;24.67;43.38
65013;BME280;51715;39.432;-77.518;2023-08-17T11:21:50;99425.35;;;24.25;43.38
65013;BME280;51715;39.432;-77.518;2023-08-17T11:24:20;99423.81;;;24.63;43.28
65013;BME280;51715;39.432;-77.518;2023-08-17T11:26:51;99423.97;;;24.69;43.51
65013;BME280;51715;39.432;-77.518;2023-08-17T11:29:19;99426.84;;;24.53;43.23
65013;BME280;51715;39.432;-77.518;2023-08-17T11:31:51;99429.47;;;24.64;43.18
65013;BME280;51715;39.432;-77.518;2023-08-17T11:34:18;99430.43;;;24.77;43.24
65013;BME280;51715;39.432;-77.518;2023-08-17T11:36:47;99429.55;;;24.92;43.35
65013;BME280;51715;39.432;-77.518;2023-08-17T11:39:15;99426.34;;;25.11;43.52
65013;BME280;51715;39.432;-77.518;2023-08-17T11:41:44;99428.62;;;25.31;42.54
65013;BME280;51715;39.432;-77.518;2023-08-17T11:44:13;99429.21;;;25.26;42.40
65013;BME280;51715;39.432;-77.518;2023-08-17T11:46:42;99433.45;;;25.67;41.86
65013;BME280;51715;39.432;-77.518;2023-08-17T11:49:11;99435.69;;;25.78;41.82
65013;BME280;51715;39.432;-77.518;2023-08-17T11:51:40;99441.66;;;25.68;41.72
65013;BME280;51715;39.432;-77.518;2023-08-17T11:54:09;99441.89;;;25.51;41.64
65013;BME280;51715;39.432;-77.518;2023-08-17T11:56:37;99440.94;;;25.61;41.26
65013;BME280;51715;39.432;-77.518;2023-08-17T11:59:09;99440.59;;;25.91;41.34
65013;BME280;51715;39.432;-77.518;2023-08-17T12:01:38;99437.87;;;25.66;41.55
65013;BME280;51715;39.432;-77.518;2023-08-17T12:04:08;99438.03;;;25.98;41.62
65013;BME280;51715;39.432;-77.518;2023-08-17T12:06:44;99442.38;;;25.76;41.89
65013;BME280;51715;39.432;-77.518;2023-08-17T12:09:13;99442.93;;;25.80;41.75
65013;BME280;51715;39.432;-77.518;2023-08-17T12:11:41;99436.32;;;26.14;41.59
65013;BME280;51715;39.432;-77.518;2023-08-17T12:14:12;99433.69;;;25.95;41.46
65013;BME280;51715;39.432;-77.518;2023-08-17T12:16:48;99433.35;;;26.07;42.12
65013;BME280;51715;39.432;-77.518;2023-08-17T12:19:19;99429.81;;;26.48;41.78
65013;BME280;51715;39.432;-77.518;2023-08-17T12:21:49;99427.88;;;26.16;41.36
65013;BME280;51715;39.432;-77.518;2023-08-17T12:24:18;99429.09;;;26.57;41.32
65013;BME280;51715;39.432;-77.518;2023-08-17T12:26:48;99427.27;;;26.77;41.99
65013;BME280;51715;39.432;-77.518;2023-08-17T12:29:16;99422.88;;;26.97;41.92
65013;BME280;51715;39.432;-77.518;2023-08-17T12:31:45;99423.88;;;26.69;41.01
65013;BME280;51715;39.432;-77.518;2023-08-17T12:34:14;99425.66;;;26.80;40.20
65013;BME280;51715;39.432;-77.518;2023-08-17T12:36:44;99421.93;;;26.91;39.33
65013;BME280;51715;39.432;-77.518;2023-08-17T12:39:13;99416.84;;;27.44;40.11
65013;BME280;51715;39.432;-77.518;2023-08-17T12:41:42;99412.59;;;27.12;39.59
65013;BME280;51715;39.432;-77.518;2023-08-17T12:44:10;99410.44;;;27.24;38.92
65013;BME280;51715;39.432;-77.518;2023-08-17T12:46:39;99406.54;;;27.38;38.79
65013;BME280;51715;39.432;-77.518;2023-08-17T12:49:07;99400.98;;;27.50;39.19
65013;BME280;51715;39.432;-77.518;2023-08-17T12:51:36;99401.65;;;27.72;38.40